sensor_id;sensor_type;location;lat;lon;timestamp;temperature;humidity
23637;DHT22;11995;50.842;4.456;2022-11-20T00:02:03;5.10;99.90
23637;DHT22;11995;50.842;4.456;2022-11-20T00:04:30;5.10;99.90
23637;DHT22;11995;50.842;4.456;2022-11-20T00:06:57;5.20;99.90
23637;DHT22;11995;50.842;4.456;2022-11-20T00:09:23;5.20;99.90
23637;DHT22;11995;50.842;4.456;2022-11-20T00:11:50;5.10;99.90
23637;DHT22;11995;50.842;4.456;2022-11-20T00:14:17;5.10;99.90
23637;DHT22;11995;50.842;4.456;2022-11-20T00:16:44;5.00;99.90
23637;DHT22;11995;50.842;4.456;2022-11-20T00:19:11;4.90;99.90
23637;DHT22;11995;50.842;4.456;2022-11-20T00:21:37;4.70;99.90
23637;DHT22;11995;50.842;4.456;2022-11-20T00:24:04;4.80;99.90
23637;DHT22;11995;50.842;4.456;2022-11-20T00:26:32;4.90;99.90
23637;DHT22;11995;50.842;4.456;2022-11-20T00:29:00;5.00;99.90
23637;DHT22;11995;50.842;4.456;2022-11-20T00:31:27;4.90;99.90
23637;DHT22;11995;50.842;4.456;2022-11-20T00:33:54;4.80;99.90
23637;DHT22;11995;50.842;4.456;2022-11-20T00:36:23;4.80;99.90
23637;DHT22;11995;50.842;4.456;2022-11-20T00:38:53;4.90;99.90
23637;DHT22;11995;50.842;4.456;2022-11-20T00:41:20;4.80;99.90
23637;DHT22;11995;50.842;4.456;2022-11-20T00:43:48;4.90;99.90
23637;DHT22;11995;50.842;4.456;2022-11-20T00:46:16;4.90;99.90
23637;DHT22;11995;50.842;4.456;2022-11-20T00:48:44;4.90;99.90
23637;DHT22;11995;50.842;4.456;2022-11-20T00:51:11;4.90;99.90
23637;DHT22;11995;50.842;4.456;2022-11-20T00:53:38;5.00;99.90
23637;DHT22;11995;50.842;4.456;2022-11-20T00:56:06;5.00;99.90
23637;DHT22;11995;50.842;4.456;2022-11-20T00:58:35;4.90;99.90
23637;DHT22;11995;50.842;4.456;2022-11-20T01:01:06;4.90;99.90
23637;DHT22;11995;50.842;4.456;2022-11-20T01:03:33;4.90;99.90
23637;DHT22;11995;50.842;4.456;2022-11-20T01:06:01;4.90;99.90
23637;DHT22;11995;50.842;4.456;2022-11-20T01:08:32;4.90;99.90
23637;DHT22;11995;50.842;4.456;2022-11-20T01:11:04;4.90;99.90
23637;DHT22;11995;50.842;4.456;2022-11-20T01:13:31;4.90;99.90
23637;DHT22;11995;50.842;4.456;2022-11-20T01:16:05;4.90;99.90
23637;DHT22;11995;50.842;4.456;2022-11-20T01:18:32;4.90;99.90
23637;DHT22;11995;50.842;4.456;2022-11-20T01:21:05;4.90;99.90
23637;DHT22;11995;50.842;4.456;2022-11-20T01:23:32;4.80;99.90
23637;DHT22;11995;50.842;4.456;2022-11-20T01:25:59;4.80;99.90
23637;DHT22;11995;50.842;4.456;2022-11-20T01:28:27;4.90;99.90
23637;DHT22;11995;50.842;4.456;2022-11-20T01:30:54;4.90;99.90
23637;DHT22;11995;50.842;4.456;2022-11-20T01:33:21;5.00;99.90
23637;DHT22;11995;50.842;4.456;2022-11-20T01:35:48;5.00;99.90
23637;DHT22;11995;50.842;4.456;2022-11-20T01:38:15;4.90;99.90
23637;DHT22;11995;50.842;4.456;2022-11-20T01:40:42;4.90;99.90
23637;DHT22;11995;50.842;4.456;2022-11-20T01:43:13;4.90;99.90
23637;DHT22;11995;50.842;4.456;2022-11-20T01:45:59;4.90;99.90
23637;DHT22;11995;50.842;4.456;2022-11-20T01:48:37;4.90;99.90
23637;DHT22;11995;50.842;4.456;2022-11-20T01:50:56;4.90;99.90
23637;DHT22;11995;50.842;4.456;2022-11-20T01:53:25;4.80;99.90
23637;DHT22;11995;50.842;4.456;2022-11-20T01:55:53;4.90;99.90
23637;DHT22;11995;50.842;4.456;2022-11-20T01:58:22;4.70;99.90
23637;DHT22;11995;50.842;4.456;2022-11-20T02:00:49;4.80;99.90
23637;DHT22;11995;50.842;4.456;2022-11-20T02:03:18;4.80;99.90
23637;DHT22;11995;50.842;4.456;2022-11-20T02:05:47;4.90;99.90
23637;DHT22;11995;50.842;4.456;2022-11-20T02:08:14;4.90;99.90
23637;DHT22;11995;50.842;4.456;2022-11-20T02:10:42;5.00;99.90
23637;DHT22;11995;50.842;4.456;2022-11-20T02:13:08;5.00;99.90
23637;DHT22;11995;50.842;4.456;2022-11-20T02:15:54;5.00;99.90
23637;DHT22;11995;50.842;4.456;2022-11-20T02:18:21;4.90;99.90
23637;DHT22;11995;50.842;4.456;2022-11-20T02:20:49;4.90;99.90
23637;DHT22;11995;50.842;4.456;2022-11-20T02:23:25;4.80;99.90
23637;DHT22;11995;50.842;4.456;2022-11-20T02:25:47;4.90;99.90
23637;DHT22;11995;50.842;4.456;2022-11-20T02:28:21;4.90;99.90
23637;DHT22;11995;50.842;4.456;2022-11-20T02:30:48;4.90;99.90
23637;DHT22;11995;50.842;4.456;2022-11-20T02:33:15;4.90;99.90
23637;DHT22;11995;50.842;4.456;2022-11-20T02:35:43;4.90;99.90
23637;DHT22;11995;50.842;4.456;2022-11-20T02:38:10;4.90;99.90
23637;DHT22;11995;50.842;4.456;2022-11-20T02:40:37;5.00;99.90
23637;DHT22;11995;50.842;4.456;2022-11-20T02:43:04;5.00;99.90
23637;DHT22;11995;50.842;4.456;2022-11-20T02:45:31;5.00;99.90
23637;DHT22;11995;50.842;4.456;2022-11-20T02:47:58;5.20;99.90
23637;DHT22;11995;50.842;4.456;2022-11-20T02:50:25;5.20;99.90
23637;DHT22;11995;50.842;4.456;2022-11-20T02:52:52;5.30;99.90
23637;DHT22;11995;50.842;4.456;2022-11-20T02:55:19;5.30;99.90
23637;DHT22;11995;50.842;4.456;2022-11-20T02:57:46;5.30;99.90
23637;DHT22;11995;50.842;4.456;2022-11-20T03:00:15;5.30;99.90
23637;DHT22;11995;50.842;4.456;2022-11-20T03:02:41;5.30;99.90
23637;DHT22;11995;50.842;4.456;2022-11-20T03:05:08;5.30;99.90
23637;DHT22;11995;50.842;4.456;2022-11-20T03:07:35;5.40;99.90
23637;DHT22;11995;50.842;4.456;2022-11-20T03:10:02;5.40;99.90
23637;DHT22;11995;50.842;4.456;2022-11-20T03:12:29;5.40;99.90
23637;DHT22;11995;50.842;4.456;2022-11-20T03:14:56;5.40;99.90
23637;DHT22;11995;50.842;4.456;2022-11-20T03:17:23;5.50;99.90
23637;DHT22;11995;50.842;4.456;2022-11-20T03:19:49;5.50;99.90
23637;DHT22;11995;50.842;4.456;2022-11-20T03:22:16;5.60;99.90
23637;DHT22;11995;50.842;4.456;2022-11-20T03:24:43;5.50;99.90
23637;DHT22;11995;50.842;4.456;2022-11-20T03:27:10;5.30;99.90
23637;DHT22;11995;50.842;4.456;2022-11-20T03:29:36;5.10;99.90
23637;DHT22;11995;50.842;4.456;2022-11-20T03:32:04;5.00;99.90
23637;DHT22;11995;50.842;4.456;2022-11-20T03:34:31;5.00;99.90
23637;DHT22;11995;50.842;4.456;2022-11-20T03:36:58;4.90;99.90
23637;DHT22;11995;50.842;4.456;2022-11-20T03:39:25;4.80;99.90
23637;DHT22;11995;50.842;4.456;2022-11-20T03:41:52;4.80;99.90
23637;DHT22;11995;50.842;4.456;2022-11-20T03:44:20;4.90;99.90
23637;DHT22;11995;50.842;4.456;2022-11-20T03:46:47;4.90;99.90
23637;DHT22;11995;50.842;4.456;2022-11-20T03:49:14;5.00;99.90
23637;DHT22;11995;50.842;4.456;2022-11-20T03:51:41;5.10;99.90
23637;DHT22;11995;50.842;4.456;2022-11-20T03:54:08;5.20;99.90
23637;DHT22;11995;50.842;4.456;2022-11-20T03:56:36;5.30;99.90
23637;DHT22;11995;50.842;4.456;2022-11-20T03:59:04;5.40;99.90
23637;DHT22;11995;50.842;4.456;2022-11-20T04:01:35;5.40;99.90
23637;DHT22;11995;50.842;4.456;2022-11-20T04:04:04;5.40;99.90
23637;DHT22;11995;50.842;4.456;2022-11-20T04:06:36;5.40;99.90
23637;DHT22;11995;50.842;4.456;2022-11-20T04:08:59;5.40;99.90
23637;DHT22;11995;50.842;4.456;2022-11-20T04:11:31;5.40;99.90
23637;DHT22;11995;50.842;4.456;2022-11-20T04:13:55;5.50;99.90
23637;DHT22;11995;50.842;4.456;2022-11-20T04:16:23;5.60;99.90
23637;DHT22;11995;50.842;4.456;2022-11-20T04:18:54;5.60;99.90
23637;DHT22;11995;50.842;4.456;2022-11-20T04:21:21;5.70;99.90
23637;DHT22;11995;50.842;4.456;2022-11-20T04:23:49;5.60;99.90
23637;DHT22;11995;50.842;4.456;2022-11-20T04:26:16;5.60;99.90
23637;DHT22;11995;50.842;4.456;2022-11-20T04:28:43;5.70;99.90
23637;DHT22;11995;50.842;4.456;2022-11-20T04:31:14;5.80;99.90
23637;DHT22;11995;50.842;4.456;2022-11-20T04:33:41;5.80;99.90
23637;DHT22;11995;50.842;4.456;2022-11-20T04:36:12;5.90;99.90
23637;DHT22;11995;50.842;4.456;2022-11-20T04:38:40;6.00;99.90
23637;DHT22;11995;50.842;4.456;2022-11-20T04:41:07;6.00;99.90
23637;DHT22;11995;50.842;4.456;2022-11-20T04:43:34;6.00;99.90
23637;DHT22;11995;50.842;4.456;2022-11-20T04:46:02;6.00;99.90
23637;DHT22;11995;50.842;4.456;2022-11-20T04:48:29;6.00;99.90
23637;DHT22;11995;50.842;4.456;2022-11-20T04:51:03;6.00;99.90
23637;DHT22;11995;50.842;4.456;2022-11-20T04:53:27;6.10;99.90
23637;DHT22;11995;50.842;4.456;2022-11-20T04:55:59;6.10;99.90
23637;DHT22;11995;50.842;4.456;2022-11-20T04:58:23;6.10;99.90
23637;DHT22;11995;50.842;4.456;2022-11-20T05:00:49;6.00;99.90
23637;DHT22;11995;50.842;4.456;2022-11-20T05:03:17;6.00;99.90
23637;DHT22;11995;50.842;4.456;2022-11-20T05:05:44;6.00;99.90
23637;DHT22;11995;50.842;4.456;2022-11-20T05:08:11;6.00;99.90
23637;DHT22;11995;50.842;4.456;2022-11-20T05:10:41;6.00;99.90
23637;DHT22;11995;50.842;4.456;2022-11-20T05:13:08;6.10;99.90
23637;DHT22;11995;50.842;4.456;2022-11-20T05:15:35;6.10;99.90
23637;DHT22;11995;50.842;4.456;2022-11-20T05:18:02;6.10;99.90
23637;DHT22;11995;50.842;4.456;2022-11-20T05:20:28;6.10;99.90
23637;DHT22;11995;50.842;4.456;2022-11-20T05:22:58;6.10;99.90
23637;DHT22;11995;50.842;4.456;2022-11-20T05:25:25;6.10;99.90
23637;DHT22;11995;50.842;4.456;2022-11-20T05:27:52;6.00;99.90
23637;DHT22;11995;50.842;4.456;2022-11-20T05:30:19;5.90;99.90
23637;DHT22;11995;50.842;4.456;2022-11-20T05:32:47;6.00;99.90
23637;DHT22;11995;50.842;4.456;2022-11-20T05:35:14;6.10;99.90
23637;DHT22;11995;50.842;4.456;2022-11-20T05:37:40;6.20;99.90
23637;DHT22;11995;50.842;4.456;2022-11-20T05:40:09;6.10;99.90
23637;DHT22;11995;50.842;4.456;2022-11-20T05:42:36;6.20;99.90
23637;DHT22;11995;50.842;4.456;2022-11-20T05:45:03;6.20;99.90
23637;DHT22;11995;50.842;4.456;2022-11-20T05:47:33;6.30;99.90
23637;DHT22;11995;50.842;4.456;2022-11-20T05:50:01;6.30;99.90
23637;DHT22;11995;50.842;4.456;2022-11-20T05:52:28;6.20;99.90
23637;DHT22;11995;50.842;4.456;2022-11-20T05:54:55;6.20;99.90
23637;DHT22;11995;50.842;4.456;2022-11-20T05:57:23;6.10;99.90
23637;DHT22;11995;50.842;4.456;2022-11-20T05:59:50;5.90;99.90
23637;DHT22;11995;50.842;4.456;2022-11-20T06:02:16;6.00;99.90
23637;DHT22;11995;50.842;4.456;2022-11-20T06:04:43;6.00;99.90
23637;DHT22;11995;50.842;4.456;2022-11-20T06:07:10;6.10;99.90
23637;DHT22;11995;50.842;4.456;2022-11-20T06:09:37;6.10;99.90
23637;DHT22;11995;50.842;4.456;2022-11-20T06:12:04;6.20;99.90
23637;DHT22;11995;50.842;4.456;2022-11-20T06:14:31;6.30;99.90
23637;DHT22;11995;50.842;4.456;2022-11-20T06:16:58;6.30;99.90
23637;DHT22;11995;50.842;4.456;2022-11-20T06:19:24;6.20;99.90
23637;DHT22;11995;50.842;4.456;2022-11-20T06:21:51;6.20;99.90
23637;DHT22;11995;50.842;4.456;2022-11-20T06:24:18;6.20;99.90
23637;DHT22;11995;50.842;4.456;2022-11-20T06:26:45;6.20;99.90
23637;DHT22;11995;50.842;4.456;2022-11-20T06:29:12;6.10;99.90
23637;DHT22;11995;50.842;4.456;2022-11-20T06:31:38;6.10;99.90
23637;DHT22;11995;50.842;4.456;2022-11-20T06:34:05;6.10;99.90
23637;DHT22;11995;50.842;4.456;2022-11-20T06:36:32;6.20;99.90
23637;DHT22;11995;50.842;4.456;2022-11-20T06:38:59;6.20;99.90
23637;DHT22;11995;50.842;4.456;2022-11-20T06:41:26;6.10;99.90
23637;DHT22;11995;50.842;4.456;2022-11-20T06:43:54;6.10;99.90
23637;DHT22;11995;50.842;4.456;2022-11-20T06:46:20;6.10;99.90
23637;DHT22;11995;50.842;4.456;2022-11-20T06:48:48;6.10;99.90
23637;DHT22;11995;50.842;4.456;2022-11-20T06:51:15;6.00;99.90
23637;DHT22;11995;50.842;4.456;2022-11-20T06:53:42;6.00;99.90
23637;DHT22;11995;50.842;4.456;2022-11-20T06:56:09;6.10;99.90
23637;DHT22;11995;50.842;4.456;2022-11-20T06:58:36;6.10;99.90
23637;DHT22;11995;50.842;4.456;2022-11-20T07:01:04;6.00;99.90
23637;DHT22;11995;50.842;4.456;2022-11-20T07:03:37;5.90;99.90
23637;DHT22;11995;50.842;4.456;2022-11-20T07:06:04;6.00;99.90
23637;DHT22;11995;50.842;4.456;2022-11-20T07:08:33;6.10;99.90
23637;DHT22;11995;50.842;4.456;2022-11-20T07:11:11;6.10;99.90
23637;DHT22;11995;50.842;4.456;2022-11-20T07:13:37;6.10;99.90
23637;DHT22;11995;50.842;4.456;2022-11-20T07:16:05;6.10;99.90
23637;DHT22;11995;50.842;4.456;2022-11-20T07:18:33;6.20;99.90
23637;DHT22;11995;50.842;4.456;2022-11-20T07:21:05;6.20;99.90
23637;DHT22;11995;50.842;4.456;2022-11-20T07:23:28;6.30;99.90
23637;DHT22;11995;50.842;4.456;2022-11-20T07:25:55;6.30;99.90
23637;DHT22;11995;50.842;4.456;2022-11-20T07:28:22;6.30;99.90
23637;DHT22;11995;50.842;4.456;2022-11-20T07:30:49;6.30;99.90
23637;DHT22;11995;50.842;4.456;2022-11-20T07:33:16;6.30;99.90
23637;DHT22;11995;50.842;4.456;2022-11-20T07:35:43;6.40;99.90
23637;DHT22;11995;50.842;4.456;2022-11-20T07:38:09;6.50;99.90
23637;DHT22;11995;50.842;4.456;2022-11-20T07:40:36;6.60;99.90
23637;DHT22;11995;50.842;4.456;2022-11-20T07:43:03;6.60;99.90
23637;DHT22;11995;50.842;4.456;2022-11-20T07:45:30;6.70;99.90
23637;DHT22;11995;50.842;4.456;2022-11-20T07:47:57;6.70;99.90
23637;DHT22;11995;50.842;4.456;2022-11-20T07:50:23;6.70;99.90
23637;DHT22;11995;50.842;4.456;2022-11-20T07:52:50;6.80;99.90
23637;DHT22;11995;50.842;4.456;2022-11-20T07:55:18;6.80;99.90
23637;DHT22;11995;50.842;4.456;2022-11-20T07:57:45;6.80;99.90
23637;DHT22;11995;50.842;4.456;2022-11-20T08:00:12;6.90;99.90
23637;DHT22;11995;50.842;4.456;2022-11-20T08:02:40;6.80;99.90
23637;DHT22;11995;50.842;4.456;2022-11-20T08:05:08;6.70;99.90
23637;DHT22;11995;50.842;4.456;2022-11-20T08:07:40;6.80;99.90
23637;DHT22;11995;50.842;4.456;2022-11-20T08:10:05;6.80;99.90
23637;DHT22;11995;50.842;4.456;2022-11-20T08:12:33;6.90;99.90
23637;DHT22;11995;50.842;4.456;2022-11-20T08:15:18;6.80;99.90
23637;DHT22;11995;50.842;4.456;2022-11-20T08:17:44;6.80;99.90
23637;DHT22;11995;50.842;4.456;2022-11-20T08:20:11;6.80;99.90
23637;DHT22;11995;50.842;4.456;2022-11-20T08:22:38;6.80;99.90
23637;DHT22;11995;50.842;4.456;2022-11-20T08:25:05;6.80;99.90
23637;DHT22;11995;50.842;4.456;2022-11-20T08:27:34;7.00;99.90
23637;DHT22;11995;50.842;4.456;2022-11-20T08:30:01;7.20;99.90
23637;DHT22;11995;50.842;4.456;2022-11-20T08:32:28;7.20;99.90
23637;DHT22;11995;50.842;4.456;2022-11-20T08:34:55;7.20;99.90
23637;DHT22;11995;50.842;4.456;2022-11-20T08:37:22;7.20;99.90
23637;DHT22;11995;50.842;4.456;2022-11-20T08:39:49;7.20;99.90
23637;DHT22;11995;50.842;4.456;2022-11-20T08:42:16;7.20;99.90
23637;DHT22;11995;50.842;4.456;2022-11-20T08:44:42;7.30;99.90
23637;DHT22;11995;50.842;4.456;2022-11-20T08:47:09;7.20;99.90
23637;DHT22;11995;50.842;4.456;2022-11-20T08:49:36;7.20;99.90
23637;DHT22;11995;50.842;4.456;2022-11-20T08:52:03;7.20;99.90
23637;DHT22;11995;50.842;4.456;2022-11-20T08:54:30;7.20;99.90
23637;DHT22;11995;50.842;4.456;2022-11-20T08:56:56;7.20;99.90
23637;DHT22;11995;50.842;4.456;2022-11-20T08:59:23;7.10;99.90
23637;DHT22;11995;50.842;4.456;2022-11-20T09:01:50;7.10;99.90
23637;DHT22;11995;50.842;4.456;2022-11-20T09:04:20;7.30;99.90
23637;DHT22;11995;50.842;4.456;2022-11-20T09:06:47;7.40;99.90
23637;DHT22;11995;50.842;4.456;2022-11-20T09:09:15;7.40;99.90
23637;DHT22;11995;50.842;4.456;2022-11-20T09:11:42;7.50;99.90
23637;DHT22;11995;50.842;4.456;2022-11-20T09:14:09;7.50;99.90
23637;DHT22;11995;50.842;4.456;2022-11-20T09:16:36;7.60;99.90
23637;DHT22;11995;50.842;4.456;2022-11-20T09:19:03;7.60;99.90
23637;DHT22;11995;50.842;4.456;2022-11-20T09:21:30;7.50;99.90
23637;DHT22;11995;50.842;4.456;2022-11-20T09:23:57;7.60;99.90
23637;DHT22;11995;50.842;4.456;2022-11-20T09:26:24;7.70;99.90
23637;DHT22;11995;50.842;4.456;2022-11-20T09:28:50;7.80;99.90
23637;DHT22;11995;50.842;4.456;2022-11-20T09:31:19;7.70;99.90
23637;DHT22;11995;50.842;4.456;2022-11-20T09:33:47;7.80;99.90
23637;DHT22;11995;50.842;4.456;2022-11-20T09:36:14;7.90;99.90
23637;DHT22;11995;50.842;4.456;2022-11-20T09:38:42;8.00;99.90
23637;DHT22;11995;50.842;4.456;2022-11-20T09:41:12;8.00;99.90
23637;DHT22;11995;50.842;4.456;2022-11-20T09:49:00;8.20;99.90
23637;DHT22;11995;50.842;4.456;2022-11-20T09:56:27;8.30;99.90
23637;DHT22;11995;50.842;4.456;2022-11-20T09:58:57;8.40;99.90
23637;DHT22;11995;50.842;4.456;2022-11-20T10:01:31;8.40;99.90
23637;DHT22;11995;50.842;4.456;2022-11-20T10:03:57;8.50;99.90
23637;DHT22;11995;50.842;4.456;2022-11-20T10:06:28;8.50;99.90
23637;DHT22;11995;50.842;4.456;2022-11-20T10:09:00;8.50;99.90
23637;DHT22;11995;50.842;4.456;2022-11-20T10:11:33;8.60;99.90
23637;DHT22;11995;50.842;4.456;2022-11-20T10:16:33;8.50;99.90
23637;DHT22;11995;50.842;4.456;2022-11-20T10:21:38;8.80;99.90
23637;DHT22;11995;50.842;4.456;2022-11-20T10:26:42;8.70;99.90
23637;DHT22;11995;50.842;4.456;2022-11-20T10:29:14;8.80;99.90
23637;DHT22;11995;50.842;4.456;2022-11-20T10:31:46;8.90;99.90
23637;DHT22;11995;50.842;4.456;2022-11-20T10:36:58;8.80;99.90
23637;DHT22;11995;50.842;4.456;2022-11-20T10:42:02;9.00;99.90
23637;DHT22;11995;50.842;4.456;2022-11-20T10:44:30;9.10;99.90
23637;DHT22;11995;50.842;4.456;2022-11-20T10:47:16;9.20;99.90
23637;DHT22;11995;50.842;4.456;2022-11-20T10:49:49;9.20;99.90
23637;DHT22;11995;50.842;4.456;2022-11-20T10:54:49;9.20;99.90
23637;DHT22;11995;50.842;4.456;2022-11-20T10:57:29;9.20;99.90
23637;DHT22;11995;50.842;4.456;2022-11-20T11:00:00;9.20;99.90
23637;DHT22;11995;50.842;4.456;2022-11-20T11:02:29;9.10;99.90
23637;DHT22;11995;50.842;4.456;2022-11-20T11:04:53;9.10;99.90
23637;DHT22;11995;50.842;4.456;2022-11-20T11:07:23;9.20;99.90
23637;DHT22;11995;50.842;4.456;2022-11-20T11:09:56;9.30;99.90
23637;DHT22;11995;50.842;4.456;2022-11-20T11:12:21;9.30;99.90
23637;DHT22;11995;50.842;4.456;2022-11-20T11:14:49;9.30;99.90
23637;DHT22;11995;50.842;4.456;2022-11-20T11:17:26;9.20;99.90
23637;DHT22;11995;50.842;4.456;2022-11-20T11:20:37;9.30;99.90
23637;DHT22;11995;50.842;4.456;2022-11-20T11:22:25;9.30;99.90
23637;DHT22;11995;50.842;4.456;2022-11-20T11:24:54;9.40;99.90
23637;DHT22;11995;50.842;4.456;2022-11-20T11:27:21;9.40;99.90
23637;DHT22;11995;50.842;4.456;2022-11-20T11:29:48;9.40;99.90
23637;DHT22;11995;50.842;4.456;2022-11-20T11:32:17;9.50;99.90
23637;DHT22;11995;50.842;4.456;2022-11-20T11:34:43;9.50;99.90
23637;DHT22;11995;50.842;4.456;2022-11-20T11:37:17;9.40;99.90
23637;DHT22;11995;50.842;4.456;2022-11-20T11:39:42;9.50;99.90
23637;DHT22;11995;50.842;4.456;2022-11-20T11:42:13;9.50;99.90
23637;DHT22;11995;50.842;4.456;2022-11-20T11:44:45;9.30;99.90
23637;DHT22;11995;50.842;4.456;2022-11-20T11:55:33;9.40;99.90
23637;DHT22;11995;50.842;4.456;2022-11-20T11:58:02;9.30;99.90
23637;DHT22;11995;50.842;4.456;2022-11-20T12:00:28;9.30;99.90
23637;DHT22;11995;50.842;4.456;2022-11-20T12:03:15;9.30;99.90
23637;DHT22;11995;50.842;4.456;2022-11-20T12:05:28;9.20;99.90
23637;DHT22;11995;50.842;4.456;2022-11-20T12:10:40;9.30;99.90
23637;DHT22;11995;50.842;4.456;2022-11-20T12:13:19;9.10;99.90
23637;DHT22;11995;50.842;4.456;2022-11-20T12:15:44;9.10;99.90
23637;DHT22;11995;50.842;4.456;2022-11-20T12:18:16;9.10;99.90
23637;DHT22;11995;50.842;4.456;2022-11-20T12:20:57;8.90;99.90
23637;DHT22;11995;50.842;4.456;2022-11-20T12:23:17;8.90;99.90
23637;DHT22;11995;50.842;4.456;2022-11-20T12:25:43;8.90;99.90
23637;DHT22;11995;50.842;4.456;2022-11-20T12:28:19;8.70;99.90
23637;DHT22;11995;50.842;4.456;2022-11-20T12:31:03;8.70;99.90
23637;DHT22;11995;50.842;4.456;2022-11-20T12:38:36;8.70;99.90
23637;DHT22;11995;50.842;4.456;2022-11-20T12:44:52;8.50;99.90
23637;DHT22;11995;50.842;4.456;2022-11-20T12:46:46;8.60;99.90
23637;DHT22;11995;50.842;4.456;2022-11-20T12:49:26;8.80;99.90
23637;DHT22;11995;50.842;4.456;2022-11-20T12:51:57;8.60;99.90
23637;DHT22;11995;50.842;4.456;2022-11-20T12:57:04;8.70;99.90
23637;DHT22;11995;50.842;4.456;2022-11-20T12:59:33;8.70;99.90
23637;DHT22;11995;50.842;4.456;2022-11-20T13:07:12;9.10;99.90
23637;DHT22;11995;50.842;4.456;2022-11-20T13:09:46;9.20;99.90
23637;DHT22;11995;50.842;4.456;2022-11-20T13:12:15;9.20;99.90
23637;DHT22;11995;50.842;4.456;2022-11-20T13:14:55;9.20;99.90
23637;DHT22;11995;50.842;4.456;2022-11-20T13:17:28;9.20;99.90
23637;DHT22;11995;50.842;4.456;2022-11-20T13:19:53;8.90;99.90
23637;DHT22;11995;50.842;4.456;2022-11-20T13:22:24;9.00;99.90
23637;DHT22;11995;50.842;4.456;2022-11-20T13:24:51;8.90;99.90
23637;DHT22;11995;50.842;4.456;2022-11-20T13:27:20;8.80;99.90
23637;DHT22;11995;50.842;4.456;2022-11-20T13:29:58;8.80;99.90
23637;DHT22;11995;50.842;4.456;2022-11-20T13:32:17;8.80;99.90
23637;DHT22;11995;50.842;4.456;2022-11-20T13:34:57;8.80;99.90
23637;DHT22;11995;50.842;4.456;2022-11-20T13:37:29;8.80;99.90
23637;DHT22;11995;50.842;4.456;2022-11-20T13:39:52;8.80;99.90
23637;DHT22;11995;50.842;4.456;2022-11-20T13:42:27;8.80;99.90
23637;DHT22;11995;50.842;4.456;2022-11-20T13:44:54;8.80;99.90
23637;DHT22;11995;50.842;4.456;2022-11-20T13:47:23;8.80;99.90
23637;DHT22;11995;50.842;4.456;2022-11-20T13:49:55;8.90;99.90
23637;DHT22;11995;50.842;4.456;2022-11-20T13:52:27;9.00;99.90
23637;DHT22;11995;50.842;4.456;2022-11-20T14:00:22;8.80;99.90
23637;DHT22;11995;50.842;4.456;2022-11-20T14:03:01;8.80;99.90
23637;DHT22;11995;50.842;4.456;2022-11-20T14:05:28;8.70;99.90
23637;DHT22;11995;50.842;4.456;2022-11-20T14:07:55;8.80;99.90
23637;DHT22;11995;50.842;4.456;2022-11-20T14:10:27;8.80;99.90
23637;DHT22;11995;50.842;4.456;2022-11-20T14:12:51;8.70;99.90
23637;DHT22;11995;50.842;4.456;2022-11-20T14:15:29;8.70;99.90
23637;DHT22;11995;50.842;4.456;2022-11-20T14:17:56;8.60;99.90
23637;DHT22;11995;50.842;4.456;2022-11-20T14:20:29;8.70;99.90
23637;DHT22;11995;50.842;4.456;2022-11-20T14:22:57;8.70;99.90
23637;DHT22;11995;50.842;4.456;2022-11-20T14:25:27;8.70;99.90
23637;DHT22;11995;50.842;4.456;2022-11-20T14:27:59;8.70;99.90
23637;DHT22;11995;50.842;4.456;2022-11-20T14:30:37;8.60;99.90
23637;DHT22;11995;50.842;4.456;2022-11-20T14:32:56;8.60;99.90
23637;DHT22;11995;50.842;4.456;2022-11-20T14:35:24;8.60;99.90
23637;DHT22;11995;50.842;4.456;2022-11-20T14:37:51;8.70;99.90
23637;DHT22;11995;50.842;4.456;2022-11-20T14:40:23;8.60;99.90
23637;DHT22;11995;50.842;4.456;2022-11-20T14:42:51;8.70;99.90
23637;DHT22;11995;50.842;4.456;2022-11-20T14:45:18;8.70;99.90
23637;DHT22;11995;50.842;4.456;2022-11-20T14:47:45;8.70;99.90
23637;DHT22;11995;50.842;4.456;2022-11-20T14:50:14;8.80;99.90
23637;DHT22;11995;50.842;4.456;2022-11-20T14:52:53;8.80;99.90
23637;DHT22;11995;50.842;4.456;2022-11-20T14:55:13;8.80;99.90
23637;DHT22;11995;50.842;4.456;2022-11-20T14:57:40;8.80;99.90
23637;DHT22;11995;50.842;4.456;2022-11-20T15:02:45;8.70;99.90
23637;DHT22;11995;50.842;4.456;2022-11-20T15:05:08;8.60;99.90
23637;DHT22;11995;50.842;4.456;2022-11-20T15:07:37;8.60;99.90
23637;DHT22;11995;50.842;4.456;2022-11-20T15:10:05;8.60;99.90
23637;DHT22;11995;50.842;4.456;2022-11-20T15:12:33;8.70;99.90
23637;DHT22;11995;50.842;4.456;2022-11-20T15:15:01;8.70;99.90
23637;DHT22;11995;50.842;4.456;2022-11-20T15:17:31;8.70;99.90
23637;DHT22;11995;50.842;4.456;2022-11-20T15:19:58;8.80;99.90
23637;DHT22;11995;50.842;4.456;2022-11-20T15:22:26;8.80;99.90
23637;DHT22;11995;50.842;4.456;2022-11-20T15:24:53;8.80;99.90
23637;DHT22;11995;50.842;4.456;2022-11-20T15:27:21;8.70;99.90
23637;DHT22;11995;50.842;4.456;2022-11-20T15:29:48;8.70;99.90
23637;DHT22;11995;50.842;4.456;2022-11-20T15:32:15;8.80;99.90
23637;DHT22;11995;50.842;4.456;2022-11-20T15:34:42;8.90;99.90
23637;DHT22;11995;50.842;4.456;2022-11-20T15:37:09;8.80;99.90
23637;DHT22;11995;50.842;4.456;2022-11-20T15:39:36;8.80;99.90
23637;DHT22;11995;50.842;4.456;2022-11-20T15:42:03;8.80;99.90
23637;DHT22;11995;50.842;4.456;2022-11-20T15:44:29;8.70;99.90
23637;DHT22;11995;50.842;4.456;2022-11-20T15:46:56;8.70;99.90
23637;DHT22;11995;50.842;4.456;2022-11-20T15:49:23;8.90;99.90
23637;DHT22;11995;50.842;4.456;2022-11-20T15:51:51;8.90;99.90
23637;DHT22;11995;50.842;4.456;2022-11-20T15:54:20;9.00;99.90
23637;DHT22;11995;50.842;4.456;2022-11-20T15:56:48;9.00;99.90
23637;DHT22;11995;50.842;4.456;2022-11-20T15:59:17;8.90;99.90
23637;DHT22;11995;50.842;4.456;2022-11-20T16:01:44;8.90;99.90
23637;DHT22;11995;50.842;4.456;2022-11-20T16:04:12;8.80;99.90
23637;DHT22;11995;50.842;4.456;2022-11-20T16:06:39;8.80;99.90
23637;DHT22;11995;50.842;4.456;2022-11-20T16:09:06;8.80;99.90
23637;DHT22;11995;50.842;4.456;2022-11-20T16:11:33;8.90;99.90
23637;DHT22;11995;50.842;4.456;2022-11-20T16:14:05;8.90;99.90
23637;DHT22;11995;50.842;4.456;2022-11-20T16:16:49;8.90;99.90
23637;DHT22;11995;50.842;4.456;2022-11-20T16:19:17;8.90;99.90
23637;DHT22;11995;50.842;4.456;2022-11-20T16:21:44;9.00;99.90
23637;DHT22;11995;50.842;4.456;2022-11-20T16:24:12;8.90;99.90
23637;DHT22;11995;50.842;4.456;2022-11-20T16:26:39;8.90;99.90
23637;DHT22;11995;50.842;4.456;2022-11-20T16:29:08;8.80;99.90
23637;DHT22;11995;50.842;4.456;2022-11-20T16:31:37;8.80;99.90
23637;DHT22;11995;50.842;4.456;2022-11-20T16:34:05;8.70;99.90
23637;DHT22;11995;50.842;4.456;2022-11-20T16:36:33;8.80;99.90
23637;DHT22;11995;50.842;4.456;2022-11-20T16:39:01;8.80;99.90
23637;DHT22;11995;50.842;4.456;2022-11-20T16:41:29;8.80;99.90
23637;DHT22;11995;50.842;4.456;2022-11-20T16:43:57;8.80;99.90
23637;DHT22;11995;50.842;4.456;2022-11-20T16:46:25;8.80;99.90
23637;DHT22;11995;50.842;4.456;2022-11-20T16:48:53;8.80;99.90
23637;DHT22;11995;50.842;4.456;2022-11-20T16:51:21;8.90;99.90
23637;DHT22;11995;50.842;4.456;2022-11-20T16:53:49;8.80;99.90